createdAt,value
2017-06-12T00:01:01.227Z,63.70
2017-06-12T00:03:28.686Z,64.20
2017-06-12T00:05:56.157Z,64.20
2017-06-12T00:08:23.699Z,64.40
2017-06-12T00:10:51.156Z,64.10
2017-06-12T00:13:18.611Z,63.90
2017-06-12T00:21:42.050Z,63.20
2017-06-12T00:24:10.240Z,63.20
2017-06-12T00:26:37.711Z,62.80
2017-06-12T00:29:05.399Z,62.40
2017-06-12T00:31:32.840Z,62.60
2017-06-12T00:34:00.287Z,62.90
2017-06-12T00:36:27.751Z,63.40
2017-06-12T00:38:55.214Z,63.10
2017-06-12T00:41:22.706Z,63.20
2017-06-12T00:43:50.161Z,63.10
2017-06-12T00:46:18.031Z,63.40
2017-06-12T00:48:45.659Z,63.40
2017-06-12T00:51:13.192Z,63.40
2017-06-12T00:53:40.664Z,63.40
2017-06-12T00:56:08.183Z,63.40
2017-06-12T00:58:36.379Z,63.50
2017-06-12T01:01:03.846Z,63.60
2017-06-12T01:03:31.889Z,63.40
2017-06-12T01:05:59.384Z,63.40
2017-06-12T01:08:26.896Z,63.60
2017-06-12T01:10:54.723Z,63.50
2017-06-12T01:13:22.202Z,63.30
2017-06-12T01:15:50.189Z,63.20
2017-06-12T01:18:18.633Z,63.30
2017-06-12T01:20:46.790Z,63.40
2017-06-12T01:23:14.232Z,63.40
2017-06-12T01:25:41.710Z,63.40
2017-06-12T01:28:09.235Z,63.00
2017-06-12T01:30:37.539Z,63.00
2017-06-12T01:33:04.987Z,63.00
2017-06-12T01:35:32.731Z,63.40
2017-06-12T01:38:00.171Z,63.30
2017-06-12T01:40:27.729Z,63.60
2017-06-12T01:42:55.486Z,63.40
2017-06-12T01:45:23.312Z,63.30
2017-06-12T01:47:50.750Z,63.20
2017-06-12T01:50:18.652Z,63.10
2017-06-12T01:52:46.113Z,63.10
2017-06-12T01:55:13.553Z,63.10
2017-06-12T01:57:41.022Z,63.20
2017-06-12T02:00:09.043Z,63.40
2017-06-12T02:02:36.535Z,63.60
2017-06-12T02:05:04.059Z,63.70
2017-06-12T02:07:32.012Z,63.80
2017-06-12T02:09:59.532Z,63.80
2017-06-12T02:12:27.805Z,63.90
2017-06-12T02:14:55.308Z,63.90
2017-06-12T02:17:22.766Z,64.00
2017-06-12T02:19:50.211Z,64.10
2017-06-12T02:22:17.694Z,64.00
2017-06-12T02:24:45.151Z,64.20
2017-06-12T02:27:13.530Z,64.20
2017-06-12T02:29:41.003Z,64.30
2017-06-12T02:32:08.511Z,64.50
2017-06-12T02:34:36.310Z,64.50
2017-06-12T02:37:03.999Z,64.60
2017-06-12T02:39:31.461Z,64.70
2017-06-12T02:41:59.812Z,64.80
2017-06-12T02:44:27.488Z,64.90
2017-06-12T02:46:55.010Z,64.90
2017-06-12T02:49:22.484Z,65.00
2017-06-12T02:51:50.117Z,65.30
2017-06-12T02:54:17.629Z,65.40
2017-06-12T02:56:45.678Z,65.40
2017-06-12T02:59:13.954Z,65.50
2017-06-12T03:01:41.576Z,65.60
2017-06-12T03:04:09.420Z,65.80
2017-06-12T03:06:36.892Z,65.80
2017-06-12T03:09:05.241Z,65.90
2017-06-12T03:11:32.711Z,65.90
2017-06-12T03:14:00.187Z,66.10
2017-06-12T03:16:27.754Z,66.20
2017-06-12T03:18:55.207Z,66.40
2017-06-12T03:21:23.176Z,66.70
2017-06-12T03:23:50.796Z,66.90
2017-06-12T03:26:18.260Z,67.00
2017-06-12T03:28:47.409Z,67.20
2017-06-12T03:31:14.951Z,67.30
2017-06-12T03:33:42.421Z,67.40
2017-06-12T03:36:10.838Z,67.60
2017-06-12T03:38:39.143Z,67.60
2017-06-12T03:41:07.329Z,67.70
2017-06-12T03:43:34.955Z,67.80
2017-06-12T03:46:02.769Z,68.00
2017-06-12T03:48:30.469Z,68.10
2017-06-12T03:50:58.432Z,68.10
2017-06-12T03:53:25.896Z,68.20
2017-06-12T03:55:53.376Z,68.20
2017-06-12T03:58:21.175Z,68.30
2017-06-12T04:00:48.637Z,68.50
2017-06-12T04:03:16.089Z,68.50
2017-06-12T04:05:43.740Z,68.60
2017-06-12T04:08:11.739Z,68.60
2017-06-12T04:10:39.221Z,68.70
2017-06-12T04:13:06.732Z,68.80
2017-06-12T04:15:34.187Z,68.90
2017-06-12T04:18:01.628Z,68.90
2017-06-12T04:20:29.948Z,69.00
2017-06-12T04:22:58.395Z,68.80
2017-06-12T04:25:26.048Z,68.80
2017-06-12T04:27:53.502Z,68.90
2017-06-12T04:30:20.964Z,69.00
2017-06-12T04:32:48.628Z,69.20
2017-06-12T04:35:17.216Z,69.00
2017-06-12T04:37:44.682Z,69.00
2017-06-12T04:40:12.720Z,69.10
2017-06-12T04:42:40.189Z,69.10
2017-06-12T04:45:07.661Z,68.80
2017-06-12T04:47:35.259Z,68.80
2017-06-12T04:50:03.157Z,68.90
2017-06-12T04:52:30.628Z,68.90
2017-06-12T04:54:59.064Z,69.10
2017-06-12T04:57:26.564Z,69.00
2017-06-12T04:59:54.066Z,69.00
2017-06-12T05:02:21.579Z,69.00
2017-06-12T05:04:50.582Z,69.10
2017-06-12T05:07:18.038Z,69.00
2017-06-12T05:09:46.281Z,69.10
2017-06-12T05:12:13.897Z,69.00
2017-06-12T05:14:41.551Z,69.10
2017-06-12T05:17:09.024Z,69.10
2017-06-12T05:19:36.507Z,69.10
2017-06-12T05:22:04.032Z,68.10
2017-06-12T05:24:31.503Z,68.10
2017-06-12T05:26:59.175Z,67.50
2017-06-12T05:29:26.657Z,67.00
2017-06-12T05:31:54.134Z,67.10
2017-06-12T05:34:21.648Z,67.10
2017-06-12T05:36:50.641Z,66.70
2017-06-12T05:39:18.171Z,65.90
2017-06-12T05:41:45.869Z,65.90
2017-06-12T05:44:13.462Z,65.50
2017-06-12T05:46:41.131Z,65.10
2017-06-12T05:49:08.582Z,65.20
2017-06-12T05:51:37.303Z,65.00
2017-06-12T05:54:04.964Z,65.00
2017-06-12T05:56:32.453Z,64.30
2017-06-12T05:59:00.657Z,64.60
2017-06-12T06:01:28.138Z,64.70
2017-06-12T06:03:58.712Z,64.80
2017-06-12T06:06:28.963Z,64.40
2017-06-12T06:08:56.834Z,64.60
2017-06-12T06:11:24.314Z,64.60
2017-06-12T06:19:46.260Z,64.30
2017-06-12T06:22:13.751Z,64.10
2017-06-12T06:24:41.268Z,63.30
2017-06-12T06:27:08.738Z,63.00
2017-06-12T06:29:36.253Z,62.90
2017-06-12T06:32:03.787Z,62.50
2017-06-12T06:34:31.259Z,62.10
2017-06-12T06:36:59.309Z,61.80
2017-06-12T06:39:26.769Z,61.80
2017-06-12T06:41:54.223Z,60.90
2017-06-12T06:44:21.744Z,59.00
2017-06-12T06:46:49.206Z,58.10
2017-06-12T06:49:16.668Z,58.00
2017-06-12T06:51:44.862Z,58.00
2017-06-12T06:54:12.306Z,58.30
2017-06-12T06:56:49.780Z,57.60
2017-06-12T06:59:17.617Z,57.40
2017-06-12T07:01:45.057Z,57.40
2017-06-12T07:04:12.530Z,58.10
2017-06-12T07:09:30.582Z,56.50
2017-06-12T07:11:58.261Z,56.30
2017-06-12T07:14:25.703Z,55.00
2017-06-12T07:16:53.199Z,55.10
2017-06-12T07:19:20.662Z,55.60
2017-06-12T07:21:49.209Z,53.70
2017-06-12T07:24:16.685Z,54.10
2017-06-12T07:27:00.266Z,53.60
2017-06-12T07:29:27.887Z,53.50
2017-06-12T07:31:55.346Z,52.80
2017-06-12T07:34:22.810Z,53.00
2017-06-12T07:36:50.455Z,52.50
2017-06-12T07:39:17.970Z,50.90
2017-06-12T07:41:46.280Z,49.70
2017-06-12T07:44:13.999Z,49.70
2017-06-12T07:46:41.456Z,50.30
2017-06-12T07:49:08.936Z,49.80
2017-06-12T07:51:37.222Z,48.00
2017-06-12T07:54:04.685Z,48.30
2017-06-12T07:56:56.053Z,48.00
2017-06-12T07:59:23.507Z,47.70
2017-06-12T08:01:51.058Z,48.00
2017-06-12T08:04:18.507Z,47.20
2017-06-12T08:23:50.491Z,47.40
2017-06-12T08:26:17.933Z,46.70
2017-06-12T08:28:45.380Z,47.30
2017-06-12T08:31:12.877Z,47.70
2017-06-12T08:33:40.347Z,47.30
2017-06-12T08:36:07.794Z,46.80
2017-06-12T08:38:35.281Z,45.10
2017-06-12T08:41:02.748Z,45.70
2017-06-12T08:43:30.189Z,45.60
2017-06-12T08:45:57.659Z,46.30
2017-06-12T08:48:25.277Z,44.30
2017-06-12T08:50:52.741Z,43.60
2017-06-12T08:53:20.252Z,44.00
2017-06-12T08:55:47.735Z,43.20
2017-06-12T08:58:15.239Z,42.30
2017-06-12T09:00:42.687Z,42.20
2017-06-12T09:03:10.168Z,41.10
2017-06-12T09:05:37.681Z,41.30
2017-06-12T09:08:05.159Z,41.90
2017-06-12T09:10:33.011Z,42.40
2017-06-12T09:13:00.639Z,42.40
2017-06-12T09:15:28.105Z,42.00
2017-06-12T09:17:56.372Z,42.80
2017-06-12T09:20:23.974Z,43.30
2017-06-12T09:22:52.040Z,42.30
2017-06-12T09:25:19.484Z,42.60
2017-06-12T09:27:47.011Z,42.80
2017-06-12T09:30:14.483Z,42.00
2017-06-12T09:32:41.951Z,39.90
2017-06-12T09:35:09.457Z,38.90
2017-06-12T09:37:36.938Z,40.20
2017-06-12T09:40:04.432Z,39.50
2017-06-12T09:42:31.931Z,40.10
2017-06-12T09:44:59.381Z,41.50
2017-06-12T09:47:26.891Z,41.30
2017-06-12T09:49:54.343Z,39.90
2017-06-12T09:52:21.795Z,39.70
2017-06-12T09:54:49.303Z,39.20
2017-06-12T09:57:17.168Z,38.60
2017-06-12T09:59:45.023Z,38.10
2017-06-12T10:02:14.380Z,38.10
2017-06-12T10:04:41.827Z,38.20
2017-06-12T10:07:09.294Z,37.80
2017-06-12T10:09:37.340Z,37.90
2017-06-12T10:12:04.796Z,37.80
2017-06-12T10:14:32.853Z,38.00
2017-06-12T10:17:00.317Z,38.40
2017-06-12T10:19:27.805Z,38.50
2017-06-12T10:21:55.319Z,39.30
2017-06-12T10:24:22.790Z,39.90
2017-06-12T10:26:51.302Z,40.60
2017-06-12T10:29:18.819Z,40.40
2017-06-12T10:31:46.239Z,41.70
2017-06-12T10:34:13.690Z,41.60
2017-06-12T10:36:41.679Z,41.10
2017-06-12T10:39:09.133Z,42.10
2017-06-12T10:41:37.441Z,41.40
2017-06-12T10:44:05.092Z,41.40
2017-06-12T10:46:32.540Z,41.60
2017-06-12T10:48:59.997Z,42.50
2017-06-12T10:51:27.608Z,41.50
2017-06-12T10:53:55.060Z,42.10
2017-06-12T10:56:22.959Z,41.10
2017-06-12T10:58:50.434Z,41.10
2017-06-12T11:01:17.903Z,40.90
2017-06-12T11:03:45.367Z,42.00
2017-06-12T11:06:12.959Z,41.30
2017-06-12T11:08:40.426Z,41.10
2017-06-12T11:11:07.884Z,41.20
2017-06-12T11:13:35.743Z,40.40
2017-06-12T11:16:03.175Z,41.10
2017-06-12T11:18:30.658Z,41.60
2017-06-12T11:20:58.269Z,41.60
2017-06-12T11:23:34.742Z,41.30
2017-06-12T11:26:02.434Z,41.20
2017-06-12T11:28:45.710Z,40.10
2017-06-12T11:31:13.331Z,39.70
2017-06-12T11:33:40.787Z,40.30
2017-06-12T11:36:09.079Z,40.60
2017-06-12T11:38:36.575Z,40.70
2017-06-12T11:41:04.041Z,41.00
2017-06-12T11:43:31.504Z,41.50
2017-06-12T11:45:59.060Z,41.20
2017-06-12T11:48:27.028Z,40.30
2017-06-12T11:50:54.500Z,39.60
2017-06-12T11:53:21.991Z,40.60
2017-06-12T11:55:49.429Z,39.30
2017-06-12T11:58:16.885Z,39.10
2017-06-12T12:00:44.770Z,40.20
2017-06-12T12:03:12.232Z,38.70
2017-06-12T12:05:39.696Z,39.00
2017-06-12T12:08:07.940Z,38.70
2017-06-12T12:10:35.387Z,39.30
2017-06-12T12:13:02.825Z,39.50
2017-06-12T12:15:30.427Z,39.40
2017-06-12T12:17:57.881Z,39.70
2017-06-12T12:20:25.327Z,39.70
2017-06-12T12:22:52.796Z,39.20
2017-06-12T12:25:20.240Z,39.10
2017-06-12T12:27:47.883Z,39.10
2017-06-12T12:30:15.350Z,39.00
2017-06-12T12:32:43.195Z,38.50
2017-06-12T12:35:10.666Z,38.50
2017-06-12T12:37:38.115Z,37.90
2017-06-12T12:40:05.572Z,38.10
2017-06-12T12:42:33.062Z,38.80
2017-06-12T12:45:03.855Z,39.00
2017-06-12T12:47:31.311Z,38.30
2017-06-12T12:49:58.932Z,38.60
2017-06-12T12:52:26.408Z,38.50
2017-06-12T12:54:54.252Z,39.40
2017-06-12T12:57:21.767Z,39.40
2017-06-12T12:59:49.214Z,39.30
2017-06-12T13:02:16.711Z,37.60
2017-06-12T13:04:44.235Z,36.80
2017-06-12T13:07:12.068Z,37.50
2017-06-12T13:09:39.783Z,37.50
2017-06-12T13:12:07.820Z,38.40
2017-06-12T13:14:35.291Z,38.50
2017-06-12T13:17:02.748Z,39.20
2017-06-12T13:19:30.376Z,37.90
2017-06-12T13:21:58.164Z,37.70
2017-06-12T13:24:25.599Z,37.40
2017-06-12T13:26:53.087Z,37.70
2017-06-12T13:29:22.985Z,38.40
2017-06-12T13:31:50.506Z,38.10
2017-06-12T13:34:18.413Z,38.30
2017-06-12T13:36:45.880Z,38.30
2017-06-12T13:39:13.324Z,37.70
2017-06-12T13:41:40.832Z,38.60
2017-06-12T13:44:08.307Z,38.00
2017-06-12T13:46:35.778Z,38.10
2017-06-12T13:49:03.312Z,38.90
2017-06-12T13:51:30.767Z,37.10
2017-06-12T13:53:58.224Z,38.20
2017-06-12T13:56:25.720Z,37.80
2017-06-12T13:58:53.861Z,38.30
2017-06-12T14:01:21.353Z,37.80
2017-06-12T14:03:48.840Z,36.80
2017-06-12T14:06:16.315Z,37.50
2017-06-12T14:08:43.801Z,37.70
2017-06-12T14:11:11.327Z,37.60
2017-06-12T14:13:39.574Z,37.70
2017-06-12T14:16:07.635Z,37.50
2017-06-12T14:18:35.124Z,37.90
2017-06-12T14:21:02.573Z,37.20
2017-06-12T14:23:30.228Z,37.20
2017-06-12T14:25:57.691Z,37.70
2017-06-12T14:28:25.140Z,36.60
2017-06-12T14:30:52.626Z,37.10
2017-06-12T14:33:20.094Z,37.30
2017-06-12T14:35:47.538Z,37.50
2017-06-12T14:38:15.011Z,37.80
2017-06-12T14:40:42.472Z,37.40
2017-06-12T14:43:09.935Z,37.20
2017-06-12T14:45:38.757Z,37.00
2017-06-12T14:48:06.199Z,38.50
2017-06-12T14:50:33.659Z,36.70
2017-06-12T14:53:01.301Z,37.20
2017-06-12T14:55:28.768Z,36.90
2017-06-12T14:57:57.349Z,35.90
2017-06-12T15:00:24.971Z,36.40
2017-06-12T15:02:52.455Z,35.80
2017-06-12T15:05:19.927Z,36.30
2017-06-12T15:07:47.420Z,36.70
2017-06-12T15:10:14.874Z,37.10
2017-06-12T15:12:42.320Z,37.10
2017-06-12T15:15:10.065Z,37.10
2017-06-12T15:17:37.529Z,37.20
2017-06-12T15:20:05.198Z,37.50
2017-06-12T15:22:33.082Z,37.40
2017-06-12T15:25:00.521Z,37.50
2017-06-12T15:27:27.964Z,37.20
2017-06-12T15:29:55.597Z,37.00
2017-06-12T15:32:23.105Z,36.80
2017-06-12T15:34:50.568Z,36.80
2017-06-12T15:37:18.184Z,37.00
2017-06-12T15:39:45.622Z,37.30
2017-06-12T15:42:13.090Z,37.10
2017-06-12T15:44:40.581Z,37.80
2017-06-12T15:47:09.632Z,38.70
2017-06-12T15:49:37.082Z,37.70
2017-06-12T15:52:04.590Z,37.40
2017-06-12T15:54:32.046Z,38.60
2017-06-12T15:56:59.879Z,38.70
2017-06-12T15:59:27.379Z,38.70
2017-06-12T16:01:55.643Z,39.50
2017-06-12T16:04:23.280Z,38.30
2017-06-12T16:06:50.730Z,37.60
2017-06-12T16:09:18.189Z,38.30
2017-06-12T16:11:45.827Z,38.80
2017-06-12T16:14:13.267Z,38.60
2017-06-12T16:19:31.563Z,39.90
2017-06-12T16:21:59.155Z,39.40
2017-06-12T16:24:26.640Z,38.10
2017-06-12T16:26:54.104Z,37.70
2017-06-12T16:29:21.579Z,37.60
2017-06-12T16:31:49.239Z,38.30
2017-06-12T16:34:16.696Z,37.90
2017-06-12T16:36:44.155Z,37.90
2017-06-12T16:39:12.382Z,38.30
2017-06-12T16:41:39.831Z,39.70
2017-06-12T16:44:07.294Z,40.30
2017-06-12T16:46:34.794Z,39.10
2017-06-12T16:49:02.241Z,39.70
2017-06-12T16:51:29.691Z,38.90
2017-06-12T16:53:58.235Z,39.80
2017-06-12T16:56:25.685Z,39.70
2017-06-12T16:58:53.123Z,38.90
2017-06-12T17:01:20.648Z,38.60
2017-06-12T17:03:48.517Z,38.70
2017-06-12T17:06:16.351Z,39.50
2017-06-12T17:08:43.981Z,39.50
2017-06-12T17:11:11.436Z,39.90
2017-06-12T17:13:38.875Z,39.10
2017-06-12T17:16:06.389Z,39.30
2017-06-12T17:18:33.881Z,39.40
2017-06-12T17:21:01.346Z,38.90
2017-06-12T17:23:28.883Z,38.90
2017-06-12T17:25:56.355Z,39.20
2017-06-12T17:28:23.826Z,39.70
2017-06-12T17:30:51.456Z,40.00
2017-06-12T17:33:18.891Z,39.90
2017-06-12T17:35:46.339Z,40.30
2017-06-12T17:38:13.835Z,40.90
2017-06-12T17:40:41.278Z,41.20
2017-06-12T17:43:08.720Z,41.40
2017-06-12T17:45:37.165Z,41.60
2017-06-12T17:48:04.612Z,41.30
2017-06-12T17:50:32.103Z,41.70
2017-06-12T17:52:59.845Z,42.10
2017-06-12T17:55:27.287Z,42.00
2017-06-12T17:57:54.730Z,42.10
2017-06-12T18:00:22.447Z,42.40
2017-06-12T18:02:51.317Z,42.60
2017-06-12T18:05:18.767Z,42.90
2017-06-12T18:07:46.666Z,44.10
2017-06-12T18:10:14.352Z,44.10
2017-06-12T18:12:41.790Z,44.20
2017-06-12T18:15:09.267Z,44.70
2017-06-12T18:17:36.712Z,45.10
2017-06-12T18:20:04.395Z,45.40
2017-06-12T18:22:31.847Z,45.70
2017-06-12T18:24:59.341Z,46.00
2017-06-12T18:27:26.834Z,45.80
2017-06-12T18:29:54.304Z,45.90
2017-06-12T18:32:21.803Z,45.80
2017-06-12T18:34:49.268Z,45.80
2017-06-12T18:37:16.756Z,46.30
2017-06-12T18:39:44.759Z,46.40
2017-06-12T18:42:12.215Z,46.40
2017-06-12T18:44:39.662Z,46.60
2017-06-12T18:47:07.130Z,47.00
2017-06-12T18:49:34.613Z,47.40
2017-06-12T18:52:02.905Z,47.20
2017-06-12T18:54:30.365Z,47.50
2017-06-12T18:56:58.000Z,47.70
2017-06-12T18:59:25.459Z,47.50
2017-06-12T19:01:52.904Z,48.10
2017-06-12T19:04:20.387Z,47.50
2017-06-12T19:06:47.837Z,48.30
2017-06-12T19:09:15.307Z,48.40
2017-06-12T19:11:42.783Z,48.40
2017-06-12T19:14:10.231Z,47.80
2017-06-12T19:16:37.797Z,48.40
2017-06-12T19:19:05.239Z,48.30
2017-06-12T19:21:32.690Z,48.80
2017-06-12T19:24:00.167Z,48.60
2017-06-12T19:26:27.607Z,48.70
2017-06-12T19:28:55.043Z,48.80
2017-06-12T19:31:22.958Z,48.60
2017-06-12T19:33:50.413Z,48.60
2017-06-12T19:39:08.563Z,48.20
2017-06-12T19:41:36.249Z,47.90
2017-06-12T19:44:03.716Z,48.10
2017-06-12T19:46:31.528Z,48.10
2017-06-12T19:48:59.034Z,48.40
2017-06-12T19:51:26.566Z,48.60
2017-06-12T19:53:54.352Z,48.90
2017-06-12T19:56:21.835Z,49.20
2017-06-12T19:58:49.329Z,48.80
2017-06-12T20:01:17.389Z,48.80
2017-06-12T20:03:44.829Z,49.00
2017-06-12T20:06:12.305Z,49.40
2017-06-12T20:08:39.760Z,49.20
2017-06-12T20:11:07.216Z,49.10
2017-06-12T20:13:34.883Z,49.20
2017-06-12T20:16:02.358Z,49.20
2017-06-12T20:18:30.301Z,49.50
2017-06-12T20:20:58.019Z,49.50
2017-06-12T20:23:25.485Z,49.70
2017-06-12T20:25:54.225Z,50.00
2017-06-12T20:28:22.304Z,50.00
2017-06-12T20:30:49.760Z,50.20
2017-06-12T20:33:17.239Z,50.20
2017-06-12T20:35:44.893Z,50.30
2017-06-12T20:38:12.341Z,50.30
2017-06-12T20:40:40.672Z,50.70
2017-06-12T20:43:08.132Z,50.60
2017-06-12T20:45:35.596Z,50.70
2017-06-12T20:48:03.085Z,50.70
2017-06-12T20:50:31.366Z,51.00
2017-06-12T20:52:58.820Z,51.00
2017-06-12T20:55:26.315Z,51.20
2017-06-12T20:57:53.759Z,51.00
2017-06-12T21:00:21.215Z,51.20
2017-06-12T21:02:48.908Z,51.20
2017-06-12T21:05:17.146Z,51.50
2017-06-12T21:07:44.615Z,51.50
2017-06-12T21:10:12.279Z,51.50
2017-06-12T21:12:39.717Z,51.70
2017-06-12T21:15:07.189Z,51.70
2017-06-12T21:17:34.674Z,51.60
2017-06-12T21:20:02.119Z,51.80
2017-06-12T21:22:29.560Z,52.00
2017-06-12T21:24:57.066Z,52.00
2017-06-12T21:27:24.515Z,52.10
2017-06-12T21:29:51.982Z,52.20
2017-06-12T21:32:19.627Z,52.40
2017-06-12T21:34:47.124Z,52.40
2017-06-12T21:37:14.579Z,52.80
2017-06-12T21:39:42.072Z,52.30
2017-06-12T21:42:09.530Z,52.60
2017-06-12T21:44:36.988Z,52.80
2017-06-12T21:47:04.475Z,53.00
2017-06-12T21:49:31.911Z,53.10
2017-06-12T21:51:59.366Z,53.00
2017-06-12T21:54:26.851Z,53.20
2017-06-12T21:56:55.132Z,53.50
2017-06-12T21:59:22.583Z,53.50
2017-06-12T22:01:50.061Z,53.40
2017-06-12T22:04:17.519Z,53.50
2017-06-12T22:06:45.198Z,53.70
2017-06-12T22:09:12.671Z,53.60
2017-06-12T22:11:40.145Z,53.90
2017-06-12T22:14:07.668Z,53.90
2017-06-12T22:16:35.900Z,54.00
2017-06-12T22:19:03.364Z,54.40
2017-06-12T22:21:31.893Z,54.50
2017-06-12T22:23:59.581Z,54.40
2017-06-12T22:26:27.435Z,54.00
2017-06-12T22:28:54.926Z,54.00
2017-06-12T22:31:22.366Z,54.30
2017-06-12T22:33:49.818Z,54.30
2017-06-12T22:36:17.478Z,54.30
2017-06-12T22:38:44.934Z,54.20
2017-06-12T22:41:12.374Z,54.30
2017-06-12T22:43:40.094Z,54.50
2017-06-12T22:46:07.552Z,54.40
2017-06-12T22:48:35.015Z,55.00
2017-06-12T22:51:02.515Z,55.10
2017-06-12T22:53:30.004Z,55.10
2017-06-12T22:55:57.672Z,55.30
2017-06-12T22:58:25.125Z,55.30
2017-06-12T23:00:52.574Z,55.40
2017-06-12T23:03:20.248Z,55.30
2017-06-12T23:05:47.683Z,55.30
2017-06-12T23:08:15.120Z,55.40
2017-06-12T23:10:42.605Z,55.50
2017-06-12T23:13:10.067Z,55.60
2017-06-12T23:15:37.511Z,55.80
2017-06-12T23:18:05.142Z,56.00
2017-06-12T23:20:32.601Z,56.20
2017-06-12T23:23:02.888Z,56.70
2017-06-12T23:25:30.512Z,56.70
2017-06-12T23:27:57.953Z,57.00
2017-06-12T23:30:25.444Z,57.10
2017-06-12T23:32:52.905Z,57.20
2017-06-12T23:35:20.552Z,57.70
2017-06-12T23:37:48.005Z,57.90
2017-06-12T23:40:15.469Z,58.10
2017-06-12T23:42:42.964Z,58.10
2017-06-12T23:45:10.418Z,58.30
2017-06-12T23:47:37.877Z,58.40
2017-06-12T23:50:05.401Z,58.10
2017-06-12T23:52:32.839Z,58.40
2017-06-12T23:55:00.319Z,58.30
2017-06-12T23:57:27.944Z,58.30
2017-06-12T23:59:55.385Z,58.60
